sensor_id;sensor_type;location;lat;lon;timestamp;pressure;altitude;pressure_sealevel;temperature;humidity
19761;BME280;10039;42.632;23.408;2024-01-30T00:00:28;96926.19;;;1.37;63.77
19761;BME280;10039;42.632;23.408;2024-01-30T00:02:54;96903.88;;;1.26;63.79
19761;BME280;10039;42.632;23.408;2024-01-30T00:05:19;96939.38;;;1.45;63.59
19761;BME280;10039;42.632;23.408;2024-01-30T00:07:45;96906.28;;;1.14;63.55
19761;BME280;10039;42.632;23.408;2024-01-30T00:10:11;96936.97;;;1.27;62.43
19761;BME280;10039;42.632;23.408;2024-01-30T00:12:37;96927.25;;;0.97;63.32
19761;BME280;10039;42.632;23.408;2024-01-30T00:15:03;96928.31;;;0.96;63.97
19761;BME280;10039;42.632;23.408;2024-01-30T00:17:30;96914.00;;;0.80;63.90
19761;BME280;10039;42.632;23.408;2024-01-30T00:19:56;96899.94;;;0.54;65.08
19761;BME280;10039;42.632;23.408;2024-01-30T00:22:22;96957.22;;;0.96;64.75
19761;BME280;10039;42.632;23.408;2024-01-30T00:24:48;96931.63;;;0.80;64.23
19761;BME280;10039;42.632;23.408;2024-01-30T00:27:13;96970.13;;;0.84;64.50
19761;BME280;10039;42.632;23.408;2024-01-30T00:29:42;96953.19;;;0.68;65.61
19761;BME280;10039;42.632;23.408;2024-01-30T00:32:08;96919.78;;;0.38;64.98
19761;BME280;10039;42.632;23.408;2024-01-30T00:34:52;96964.81;;;0.76;65.75
19761;BME280;10039;42.632;23.408;2024-01-30T00:37:18;96957.13;;;0.79;65.87
19761;BME280;10039;42.632;23.408;2024-01-30T00:39:44;96924.75;;;0.48;65.53
19761;BME280;10039;42.632;23.408;2024-01-30T00:42:10;96923.25;;;0.47;65.46
19761;BME280;10039;42.632;23.408;2024-01-30T00:44:36;96946.88;;;0.69;65.14
19761;BME280;10039;42.632;23.408;2024-01-30T00:47:05;96960.66;;;0.75;65.33
19761;BME280;10039;42.632;23.408;2024-01-30T00:49:31;96963.75;;;0.77;65.11
19761;BME280;10039;42.632;23.408;2024-01-30T00:51:57;96949.25;;;0.79;65.58
19761;BME280;10039;42.632;23.408;2024-01-30T00:54:23;96929.00;;;0.80;64.90
19761;BME280;10039;42.632;23.408;2024-01-30T00:56:49;96945.75;;;0.92;64.09
19761;BME280;10039;42.632;23.408;2024-01-30T00:59:14;96966.44;;;1.07;64.40
19761;BME280;10039;42.632;23.408;2024-01-30T01:01:40;96910.09;;;0.69;64.90
19761;BME280;10039;42.632;23.408;2024-01-30T01:04:06;96960.41;;;0.85;63.76
19761;BME280;10039;42.632;23.408;2024-01-30T01:06:32;96911.53;;;0.53;64.22
19761;BME280;10039;42.632;23.408;2024-01-30T01:08:58;96918.09;;;0.64;64.43
19761;BME280;10039;42.632;23.408;2024-01-30T01:11:24;96917.19;;;0.69;64.57
19761;BME280;10039;42.632;23.408;2024-01-30T01:13:50;96923.44;;;0.81;64.46
19761;BME280;10039;42.632;23.408;2024-01-30T01:16:15;96924.81;;;0.79;64.34
19761;BME280;10039;42.632;23.408;2024-01-30T01:18:41;96926.69;;;0.78;64.19
19761;BME280;10039;42.632;23.408;2024-01-30T01:21:07;96926.44;;;0.66;63.54
19761;BME280;10039;42.632;23.408;2024-01-30T01:23:33;96911.91;;;0.38;63.00
19761;BME280;10039;42.632;23.408;2024-01-30T01:25:58;96910.03;;;0.39;64.04
19761;BME280;10039;42.632;23.408;2024-01-30T01:28:26;96925.44;;;0.54;63.98
19761;BME280;10039;42.632;23.408;2024-01-30T01:30:52;96928.84;;;0.32;63.82
19761;BME280;10039;42.632;23.408;2024-01-30T01:33:18;96918.28;;;0.24;64.80
19761;BME280;10039;42.632;23.408;2024-01-30T01:35:44;96965.09;;;0.52;65.10
19761;BME280;10039;42.632;23.408;2024-01-30T01:38:10;96944.91;;;0.17;64.45
19761;BME280;10039;42.632;23.408;2024-01-30T01:40:36;96916.22;;;-0.14;65.82
19761;BME280;10039;42.632;23.408;2024-01-30T01:43:04;96934.88;;;-0.16;66.78
19761;BME280;10039;42.632;23.408;2024-01-30T01:45:30;96943.84;;;-0.30;67.62
19761;BME280;10039;42.632;23.408;2024-01-30T01:47:56;96969.97;;;-0.25;68.24
19761;BME280;10039;42.632;23.408;2024-01-30T01:50:23;96956.88;;;-0.39;68.56
19761;BME280;10039;42.632;23.408;2024-01-30T01:52:50;96918.31;;;-0.65;68.75
19761;BME280;10039;42.632;23.408;2024-01-30T01:55:17;96931.44;;;-0.52;68.98
19761;BME280;10039;42.632;23.408;2024-01-30T01:57:46;96936.66;;;-0.52;68.59
19761;BME280;10039;42.632;23.408;2024-01-30T02:00:12;96910.16;;;-0.77;69.02
19761;BME280;10039;42.632;23.408;2024-01-30T02:02:39;96957.44;;;-0.55;69.42
19761;BME280;10039;42.632;23.408;2024-01-30T02:05:05;96986.56;;;-0.30;69.63
19761;BME280;10039;42.632;23.408;2024-01-30T02:07:31;96913.97;;;-0.70;69.38
19761;BME280;10039;42.632;23.408;2024-01-30T02:09:57;96941.50;;;-0.59;69.47
19761;BME280;10039;42.632;23.408;2024-01-30T02:12:23;96942.22;;;-0.67;69.48
19761;BME280;10039;42.632;23.408;2024-01-30T02:14:49;96959.88;;;-0.45;69.61
19761;BME280;10039;42.632;23.408;2024-01-30T02:17:15;96946.66;;;-0.40;69.38
19761;BME280;10039;42.632;23.408;2024-01-30T02:19:42;96965.59;;;-0.16;69.13
19761;BME280;10039;42.632;23.408;2024-01-30T02:22:08;96950.63;;;-0.29;68.98
19761;BME280;10039;42.632;23.408;2024-01-30T02:24:35;96975.38;;;-0.08;68.61
19761;BME280;10039;42.632;23.408;2024-01-30T02:27:00;96942.97;;;-0.39;68.39
19761;BME280;10039;42.632;23.408;2024-01-30T02:29:26;96984.72;;;-0.16;69.07
19761;BME280;10039;42.632;23.408;2024-01-30T02:31:52;96957.81;;;-0.21;68.92
19761;BME280;10039;42.632;23.408;2024-01-30T02:34:18;96937.63;;;-0.34;68.65
19761;BME280;10039;42.632;23.408;2024-01-30T02:36:45;96948.41;;;-0.22;68.97
19761;BME280;10039;42.632;23.408;2024-01-30T02:39:11;96940.22;;;-0.21;68.82
19761;BME280;10039;42.632;23.408;2024-01-30T02:41:37;96942.94;;;-0.12;68.02
19761;BME280;10039;42.632;23.408;2024-01-30T02:44:03;96936.63;;;-0.11;68.05
19761;BME280;10039;42.632;23.408;2024-01-30T02:46:29;96934.22;;;-0.21;68.19
19761;BME280;10039;42.632;23.408;2024-01-30T02:48:55;96955.38;;;-0.04;68.47
19761;BME280;10039;42.632;23.408;2024-01-30T02:51:21;96953.06;;;-0.19;68.65
19761;BME280;10039;42.632;23.408;2024-01-30T02:53:47;96947.03;;;-0.20;69.15
19761;BME280;10039;42.632;23.408;2024-01-30T02:56:12;96965.19;;;-0.10;68.92
19761;BME280;10039;42.632;23.408;2024-01-30T02:58:41;96950.03;;;-0.13;69.13
19761;BME280;10039;42.632;23.408;2024-01-30T03:01:08;96966.53;;;0.01;68.75
19761;BME280;10039;42.632;23.408;2024-01-30T03:03:34;96906.56;;;-0.27;68.78
19761;BME280;10039;42.632;23.408;2024-01-30T03:06:01;96916.44;;;-0.24;68.79
19761;BME280;10039;42.632;23.408;2024-01-30T03:08:27;96911.78;;;-0.27;68.72
19761;BME280;10039;42.632;23.408;2024-01-30T03:10:53;96920.81;;;-0.20;68.66
19761;BME280;10039;42.632;23.408;2024-01-30T03:13:19;96942.44;;;-0.14;68.44
19761;BME280;10039;42.632;23.408;2024-01-30T03:15:49;96944.66;;;0.05;68.05
19761;BME280;10039;42.632;23.408;2024-01-30T03:18:15;96937.97;;;-0.01;67.81
19761;BME280;10039;42.632;23.408;2024-01-30T03:20:40;96946.81;;;0.03;67.89
19761;BME280;10039;42.632;23.408;2024-01-30T03:23:06;96894.25;;;-0.05;67.64
19761;BME280;10039;42.632;23.408;2024-01-30T03:25:32;96925.34;;;0.01;68.09
19761;BME280;10039;42.632;23.408;2024-01-30T03:27:58;96946.34;;;0.23;67.37
19761;BME280;10039;42.632;23.408;2024-01-30T03:30:24;96902.34;;;-0.15;67.18
19761;BME280;10039;42.632;23.408;2024-01-30T03:32:50;96908.16;;;-0.04;67.19
19761;BME280;10039;42.632;23.408;2024-01-30T03:35:19;96949.47;;;0.25;68.05
19761;BME280;10039;42.632;23.408;2024-01-30T03:37:44;96982.88;;;0.33;67.58
19761;BME280;10039;42.632;23.408;2024-01-30T03:40:11;96899.69;;;-0.02;67.09
19761;BME280;10039;42.632;23.408;2024-01-30T03:42:39;96955.94;;;0.41;67.39
19761;BME280;10039;42.632;23.408;2024-01-30T03:45:06;96948.59;;;0.30;67.83
19761;BME280;10039;42.632;23.408;2024-01-30T03:47:32;96921.72;;;0.11;67.86
19761;BME280;10039;42.632;23.408;2024-01-30T03:49:58;96906.28;;;0.09;68.02
19761;BME280;10039;42.632;23.408;2024-01-30T03:52:23;96953.13;;;0.60;67.17
19761;BME280;10039;42.632;23.408;2024-01-30T03:54:49;96882.19;;;0.29;66.57
19761;BME280;10039;42.632;23.408;2024-01-30T03:57:15;96888.38;;;0.33;66.24
19761;BME280;10039;42.632;23.408;2024-01-30T03:59:44;96894.13;;;0.35;66.34
19761;BME280;10039;42.632;23.408;2024-01-30T04:02:13;96893.25;;;0.48;65.24
19761;BME280;10039;42.632;23.408;2024-01-30T04:04:38;96905.78;;;0.51;65.43
19761;BME280;10039;42.632;23.408;2024-01-30T04:07:04;96920.72;;;0.42;65.36
19761;BME280;10039;42.632;23.408;2024-01-30T04:09:33;96921.16;;;0.58;64.79
19761;BME280;10039;42.632;23.408;2024-01-30T04:11:59;96913.66;;;0.51;64.99
19761;BME280;10039;42.632;23.408;2024-01-30T04:14:25;96917.13;;;0.60;64.79
19761;BME280;10039;42.632;23.408;2024-01-30T04:16:51;96916.31;;;0.73;64.98
19761;BME280;10039;42.632;23.408;2024-01-30T04:19:17;96892.03;;;0.24;64.46
19761;BME280;10039;42.632;23.408;2024-01-30T04:21:43;96900.66;;;0.24;64.87
19761;BME280;10039;42.632;23.408;2024-01-30T04:24:09;96924.75;;;0.48;65.30
19761;BME280;10039;42.632;23.408;2024-01-30T04:26:34;96965.84;;;0.66;66.06
19761;BME280;10039;42.632;23.408;2024-01-30T04:29:02;96913.81;;;0.46;66.42
19761;BME280;10039;42.632;23.408;2024-01-30T04:31:28;96897.88;;;0.21;66.10
19761;BME280;10039;42.632;23.408;2024-01-30T04:33:54;96902.69;;;0.27;66.62
19761;BME280;10039;42.632;23.408;2024-01-30T04:36:19;96919.78;;;0.38;66.12
19761;BME280;10039;42.632;23.408;2024-01-30T04:38:45;96940.59;;;0.57;65.90
19761;BME280;10039;42.632;23.408;2024-01-30T04:41:11;96927.53;;;0.43;65.55
19761;BME280;10039;42.632;23.408;2024-01-30T04:43:37;96936.97;;;0.44;66.73
19761;BME280;10039;42.632;23.408;2024-01-30T04:46:04;96927.28;;;0.53;65.28
19761;BME280;10039;42.632;23.408;2024-01-30T04:48:30;96902.22;;;0.25;65.08
19761;BME280;10039;42.632;23.408;2024-01-30T04:50:56;96910.19;;;0.20;65.56
19761;BME280;10039;42.632;23.408;2024-01-30T04:53:22;96908.16;;;0.17;65.61
19761;BME280;10039;42.632;23.408;2024-01-30T04:55:48;96921.19;;;0.22;66.58
19761;BME280;10039;42.632;23.408;2024-01-30T04:58:14;96952.09;;;0.25;66.98
19761;BME280;10039;42.632;23.408;2024-01-30T05:00:39;96928.81;;;0.10;65.86
19761;BME280;10039;42.632;23.408;2024-01-30T05:03:08;96912.38;;;0.05;66.58
19761;BME280;10039;42.632;23.408;2024-01-30T05:05:34;96953.47;;;0.45;66.57
19761;BME280;10039;42.632;23.408;2024-01-30T05:08:00;96921.00;;;0.19;66.45
19761;BME280;10039;42.632;23.408;2024-01-30T05:10:26;96914.63;;;0.11;65.52
19761;BME280;10039;42.632;23.408;2024-01-30T05:12:51;96913.66;;;0.07;65.93
19761;BME280;10039;42.632;23.408;2024-01-30T05:15:17;96919.00;;;0.02;66.15
19761;BME280;10039;42.632;23.408;2024-01-30T05:17:43;96948.44;;;0.13;65.63
19761;BME280;10039;42.632;23.408;2024-01-30T05:20:10;96941.66;;;-0.02;65.79
19761;BME280;10039;42.632;23.408;2024-01-30T05:22:36;96974.00;;;0.07;66.76
19761;BME280;10039;42.632;23.408;2024-01-30T05:25:02;96927.91;;;-0.20;66.60
19761;BME280;10039;42.632;23.408;2024-01-30T05:27:31;96980.00;;;0.21;66.21
19761;BME280;10039;42.632;23.408;2024-01-30T05:29:57;96967.31;;;0.01;66.39
19761;BME280;10039;42.632;23.408;2024-01-30T05:32:23;96970.91;;;0.05;66.76
19761;BME280;10039;42.632;23.408;2024-01-30T05:34:49;96964.41;;;-0.10;66.99
19761;BME280;10039;42.632;23.408;2024-01-30T05:37:16;96961.88;;;-0.02;66.88
19761;BME280;10039;42.632;23.408;2024-01-30T05:39:43;96984.13;;;0.00;66.02
19761;BME280;10039;42.632;23.408;2024-01-30T05:42:09;96950.84;;;-0.39;66.44
19761;BME280;10039;42.632;23.408;2024-01-30T05:44:35;96934.53;;;-0.36;67.04
19761;BME280;10039;42.632;23.408;2024-01-30T05:47:03;96934.34;;;-0.53;66.25
19761;BME280;10039;42.632;23.408;2024-01-30T05:49:29;96949.50;;;-0.50;66.96
19761;BME280;10039;42.632;23.408;2024-01-30T05:51:55;96953.75;;;-0.41;67.42
19761;BME280;10039;42.632;23.408;2024-01-30T05:54:21;96938.63;;;-0.44;66.86
19761;BME280;10039;42.632;23.408;2024-01-30T05:56:46;96976.28;;;-0.26;67.17
19761;BME280;10039;42.632;23.408;2024-01-30T05:59:12;96961.53;;;-0.36;67.02
19761;BME280;10039;42.632;23.408;2024-01-30T06:01:45;96987.34;;;-0.29;67.16
19761;BME280;10039;42.632;23.408;2024-01-30T06:04:11;96947.91;;;-0.78;67.20
19761;BME280;10039;42.632;23.408;2024-01-30T06:06:37;96932.19;;;-0.92;67.47
19761;BME280;10039;42.632;23.408;2024-01-30T06:09:03;96962.06;;;-0.79;67.68
19761;BME280;10039;42.632;23.408;2024-01-30T06:11:29;96941.88;;;-0.92;67.84
19761;BME280;10039;42.632;23.408;2024-01-30T06:13:55;96952.78;;;-0.85;68.10
19761;BME280;10039;42.632;23.408;2024-01-30T06:16:21;96978.34;;;-0.50;67.86
19761;BME280;10039;42.632;23.408;2024-01-30T06:18:48;96962.13;;;-0.52;67.08
19761;BME280;10039;42.632;23.408;2024-01-30T06:21:14;96942.22;;;-0.80;67.33
19761;BME280;10039;42.632;23.408;2024-01-30T06:23:40;96965.59;;;-0.70;66.96
19761;BME280;10039;42.632;23.408;2024-01-30T06:26:07;96941.06;;;-1.19;67.63
19761;BME280;10039;42.632;23.408;2024-01-30T06:28:32;96970.22;;;-0.94;68.50
19761;BME280;10039;42.632;23.408;2024-01-30T06:31:00;96943.47;;;-0.78;68.89
19761;BME280;10039;42.632;23.408;2024-01-30T06:33:26;96973.47;;;-0.57;67.74
19761;BME280;10039;42.632;23.408;2024-01-30T06:35:52;96943.84;;;-0.84;67.49
19761;BME280;10039;42.632;23.408;2024-01-30T06:38:18;96973.53;;;-0.62;67.26
19761;BME280;10039;42.632;23.408;2024-01-30T06:40:44;96964.81;;;-0.84;67.48
19761;BME280;10039;42.632;23.408;2024-01-30T06:43:10;96958.19;;;-0.82;67.45
19761;BME280;10039;42.632;23.408;2024-01-30T06:45:39;96942.09;;;-0.89;67.20
19761;BME280;10039;42.632;23.408;2024-01-30T06:48:08;97005.97;;;-0.44;67.74
19761;BME280;10039;42.632;23.408;2024-01-30T06:50:34;96967.63;;;-0.54;67.63
19761;BME280;10039;42.632;23.408;2024-01-30T06:53:00;96970.56;;;-0.55;66.13
19761;BME280;10039;42.632;23.408;2024-01-30T06:55:26;96948.72;;;-0.64;65.41
19761;BME280;10039;42.632;23.408;2024-01-30T06:57:52;96988.91;;;-0.28;65.61
19761;BME280;10039;42.632;23.408;2024-01-30T07:00:18;96991.22;;;-0.13;65.19
19761;BME280;10039;42.632;23.408;2024-01-30T07:02:45;96974.34;;;-0.34;65.26
19761;BME280;10039;42.632;23.408;2024-01-30T07:05:12;96958.31;;;-0.33;64.66
19761;BME280;10039;42.632;23.408;2024-01-30T07:07:41;97006.06;;;0.04;64.96
19761;BME280;10039;42.632;23.408;2024-01-30T07:10:08;96948.91;;;-0.20;65.07
19761;BME280;10039;42.632;23.408;2024-01-30T07:12:34;96981.88;;;0.07;65.17
19761;BME280;10039;42.632;23.408;2024-01-30T07:15:00;96946.53;;;-0.08;63.92
19761;BME280;10039;42.632;23.408;2024-01-30T07:17:28;97013.22;;;0.39;64.30
19761;BME280;10039;42.632;23.408;2024-01-30T07:19:54;96949.03;;;-0.03;64.37
19761;BME280;10039;42.632;23.408;2024-01-30T07:22:25;96948.66;;;-0.10;64.13
19761;BME280;10039;42.632;23.408;2024-01-30T07:24:54;96945.56;;;-0.12;64.02
19761;BME280;10039;42.632;23.408;2024-01-30T07:27:20;96999.06;;;0.13;64.18
19761;BME280;10039;42.632;23.408;2024-01-30T07:29:47;96960.81;;;-0.14;63.58
19761;BME280;10039;42.632;23.408;2024-01-30T07:32:15;96957.91;;;-0.13;63.84
19761;BME280;10039;42.632;23.408;2024-01-30T07:34:41;96961.44;;;0.18;63.52
19761;BME280;10039;42.632;23.408;2024-01-30T07:37:07;97026.94;;;0.58;63.12
19761;BME280;10039;42.632;23.408;2024-01-30T07:39:34;97001.53;;;0.67;62.68
19761;BME280;10039;42.632;23.408;2024-01-30T07:42:00;96957.81;;;0.49;62.34
19761;BME280;10039;42.632;23.408;2024-01-30T07:44:29;97010.50;;;1.10;61.19
19761;BME280;10039;42.632;23.408;2024-01-30T07:46:57;96985.00;;;1.10;60.12
19761;BME280;10039;42.632;23.408;2024-01-30T07:49:23;97002.59;;;1.32;60.10
19761;BME280;10039;42.632;23.408;2024-01-30T07:51:50;96952.63;;;1.02;60.03
19761;BME280;10039;42.632;23.408;2024-01-30T07:54:16;96959.81;;;1.18;60.10
19761;BME280;10039;42.632;23.408;2024-01-30T07:56:42;96962.25;;;1.45;60.21
19761;BME280;10039;42.632;23.408;2024-01-30T07:59:12;97023.06;;;1.74;56.78
19761;BME280;10039;42.632;23.408;2024-01-30T08:01:38;97013.91;;;1.80;57.31
19761;BME280;10039;42.632;23.408;2024-01-30T08:04:04;96973.97;;;1.69;57.02
19761;BME280;10039;42.632;23.408;2024-01-30T08:06:30;96958.50;;;1.68;56.18
19761;BME280;10039;42.632;23.408;2024-01-30T08:08:56;96970.78;;;1.98;55.82
19761;BME280;10039;42.632;23.408;2024-01-30T08:11:23;96967.22;;;1.94;55.34
19761;BME280;10039;42.632;23.408;2024-01-30T08:14:00;96953.94;;;2.16;58.21
19761;BME280;10039;42.632;23.408;2024-01-30T08:16:26;96964.00;;;2.05;55.10
19761;BME280;10039;42.632;23.408;2024-01-30T08:19:00;96976.25;;;2.18;58.48
19761;BME280;10039;42.632;23.408;2024-01-30T08:21:27;96949.59;;;2.19;55.06
19761;BME280;10039;42.632;23.408;2024-01-30T08:23:53;96956.88;;;2.22;54.36
19761;BME280;10039;42.632;23.408;2024-01-30T08:26:20;96973.63;;;2.35;54.42
19761;BME280;10039;42.632;23.408;2024-01-30T08:28:46;96995.34;;;2.57;52.47
19761;BME280;10039;42.632;23.408;2024-01-30T08:31:13;96991.47;;;2.63;53.46
19761;BME280;10039;42.632;23.408;2024-01-30T08:33:38;96969.75;;;2.32;55.02
19761;BME280;10039;42.632;23.408;2024-01-30T08:36:04;96941.41;;;2.46;56.20
19761;BME280;10039;42.632;23.408;2024-01-30T08:38:30;96959.97;;;2.75;52.93
19761;BME280;10039;42.632;23.408;2024-01-30T08:40:56;96956.75;;;2.44;51.49
19761;BME280;10039;42.632;23.408;2024-01-30T08:43:22;96955.03;;;2.57;56.47
19761;BME280;10039;42.632;23.408;2024-01-30T08:45:48;96973.19;;;2.58;52.32
19761;BME280;10039;42.632;23.408;2024-01-30T08:48:14;96942.94;;;2.56;51.93
19761;BME280;10039;42.632;23.408;2024-01-30T08:50:40;96996.72;;;2.80;51.53
19761;BME280;10039;42.632;23.408;2024-01-30T08:53:06;96990.69;;;2.54;51.61
19761;BME280;10039;42.632;23.408;2024-01-30T08:55:32;97027.13;;;2.86;52.49
19761;BME280;10039;42.632;23.408;2024-01-30T08:58:01;97015.16;;;2.89;52.20
19761;BME280;10039;42.632;23.408;2024-01-30T09:00:30;96998.59;;;2.54;50.57
19761;BME280;10039;42.632;23.408;2024-01-30T09:02:56;96968.97;;;2.23;53.31
19761;BME280;10039;42.632;23.408;2024-01-30T09:05:25;96968.38;;;2.60;54.56
19761;BME280;10039;42.632;23.408;2024-01-30T09:07:51;97030.53;;;2.95;52.22
19761;BME280;10039;42.632;23.408;2024-01-30T09:10:17;96981.66;;;2.98;54.61
19761;BME280;10039;42.632;23.408;2024-01-30T09:12:48;96983.38;;;3.02;51.67
19761;BME280;10039;42.632;23.408;2024-01-30T09:15:17;96980.13;;;2.97;52.47
19761;BME280;10039;42.632;23.408;2024-01-30T09:17:44;96938.13;;;2.83;54.36
19761;BME280;10039;42.632;23.408;2024-01-30T09:20:10;96987.66;;;3.24;52.96
19761;BME280;10039;42.632;23.408;2024-01-30T09:22:37;96936.06;;;3.06;53.00
19761;BME280;10039;42.632;23.408;2024-01-30T09:25:03;96967.06;;;3.17;51.58
19761;BME280;10039;42.632;23.408;2024-01-30T09:27:30;96972.75;;;3.28;53.56
19761;BME280;10039;42.632;23.408;2024-01-30T09:29:56;96957.38;;;3.38;51.43
19761;BME280;10039;42.632;23.408;2024-01-30T09:32:22;96962.09;;;3.16;49.88
19761;BME280;10039;42.632;23.408;2024-01-30T09:34:48;96975.78;;;3.01;50.94
19761;BME280;10039;42.632;23.408;2024-01-30T09:37:17;96955.63;;;2.96;51.60
19761;BME280;10039;42.632;23.408;2024-01-30T09:39:44;96981.50;;;3.11;51.30
19761;BME280;10039;42.632;23.408;2024-01-30T09:44:51;96952.50;;;3.03;51.49
19761;BME280;10039;42.632;23.408;2024-01-30T09:47:20;96980.22;;;3.34;51.01
19761;BME280;10039;42.632;23.408;2024-01-30T09:49:48;96955.72;;;3.25;51.62
19761;BME280;10039;42.632;23.408;2024-01-30T09:52:15;96976.50;;;3.18;51.49
19761;BME280;10039;42.632;23.408;2024-01-30T09:54:42;96948.59;;;3.17;51.67
19761;BME280;10039;42.632;23.408;2024-01-30T09:57:09;96952.16;;;3.21;51.37
19761;BME280;10039;42.632;23.408;2024-01-30T09:59:42;96980.22;;;3.34;51.04
19761;BME280;10039;42.632;23.408;2024-01-30T10:03:09;96928.41;;;3.21;52.25
19761;BME280;10039;42.632;23.408;2024-01-30T10:05:41;96925.81;;;3.13;50.50
19761;BME280;10039;42.632;23.408;2024-01-30T10:08:11;96946.59;;;3.14;50.74
19761;BME280;10039;42.632;23.408;2024-01-30T10:10:37;96938.31;;;3.32;52.31
19761;BME280;10039;42.632;23.408;2024-01-30T10:13:03;96953.09;;;3.62;51.52
19761;BME280;10039;42.632;23.408;2024-01-30T10:15:29;96906.94;;;3.39;50.23
19761;BME280;10039;42.632;23.408;2024-01-30T10:17:59;96927.81;;;3.53;52.26
19761;BME280;10039;42.632;23.408;2024-01-30T10:20:25;96969.16;;;3.78;50.40
19761;BME280;10039;42.632;23.408;2024-01-30T10:22:53;96953.63;;;3.47;50.04
19761;BME280;10039;42.632;23.408;2024-01-30T10:25:21;96917.16;;;2.95;50.02
19761;BME280;10039;42.632;23.408;2024-01-30T10:27:53;96948.34;;;3.39;50.87
19761;BME280;10039;42.632;23.408;2024-01-30T10:30:40;96957.31;;;3.55;50.23
19761;BME280;10039;42.632;23.408;2024-01-30T10:33:05;96935.97;;;3.39;50.00
19761;BME280;10039;42.632;23.408;2024-01-30T10:35:31;96937.19;;;3.42;50.22
19761;BME280;10039;42.632;23.408;2024-01-30T10:37:58;96945.03;;;3.59;50.59
19761;BME280;10039;42.632;23.408;2024-01-30T10:40:34;96955.97;;;3.78;50.44
19761;BME280;10039;42.632;23.408;2024-01-30T10:43:01;96931.38;;;3.57;50.72
19761;BME280;10039;42.632;23.408;2024-01-30T10:45:28;96943.38;;;3.46;49.56
19761;BME280;10039;42.632;23.408;2024-01-30T10:48:02;96929.84;;;3.56;50.34
19761;BME280;10039;42.632;23.408;2024-01-30T10:50:30;96931.88;;;3.50;50.19
19761;BME280;10039;42.632;23.408;2024-01-30T10:52:59;96956.63;;;3.66;52.23
19761;BME280;10039;42.632;23.408;2024-01-30T10:55:27;96935.56;;;3.58;51.06
19761;BME280;10039;42.632;23.408;2024-01-30T10:57:54;96912.47;;;3.18;51.49
19761;BME280;10039;42.632;23.408;2024-01-30T11:00:20;96920.38;;;3.55;52.61
19761;BME280;10039;42.632;23.408;2024-01-30T11:02:49;96913.22;;;3.55;50.58
19761;BME280;10039;42.632;23.408;2024-01-30T11:05:24;96937.84;;;3.68;50.38
19761;BME280;10039;42.632;23.408;2024-01-30T11:07:55;96887.34;;;3.03;50.53
19761;BME280;10039;42.632;23.408;2024-01-30T11:10:21;96902.75;;;3.01;50.79
19761;BME280;10039;42.632;23.408;2024-01-30T11:12:49;96883.47;;;3.09;52.10
19761;BME280;10039;42.632;23.408;2024-01-30T11:15:17;96933.75;;;3.50;51.95
19761;BME280;10039;42.632;23.408;2024-01-30T11:20:30;96919.34;;;3.76;52.82
19761;BME280;10039;42.632;23.408;2024-01-30T11:23:01;96920.72;;;3.74;50.09
19761;BME280;10039;42.632;23.408;2024-01-30T11:25:35;96909.47;;;3.65;52.41
19761;BME280;10039;42.632;23.408;2024-01-30T11:28:01;96911.81;;;3.87;51.67
19761;BME280;10039;42.632;23.408;2024-01-30T11:30:31;96931.34;;;4.15;51.31
19761;BME280;10039;42.632;23.408;2024-01-30T11:33:06;96932.25;;;4.19;51.43
19761;BME280;10039;42.632;23.408;2024-01-30T11:35:33;96919.50;;;4.21;52.56
19761;BME280;10039;42.632;23.408;2024-01-30T11:38:00;96942.03;;;3.98;49.86
19761;BME280;10039;42.632;23.408;2024-01-30T11:40:31;96917.59;;;4.01;50.46
19761;BME280;10039;42.632;23.408;2024-01-30T11:42:59;96919.75;;;4.07;50.97
19761;BME280;10039;42.632;23.408;2024-01-30T11:45:25;96934.44;;;4.17;51.99
19761;BME280;10039;42.632;23.408;2024-01-30T11:47:52;96926.00;;;4.23;52.54
19761;BME280;10039;42.632;23.408;2024-01-30T11:50:18;96900.03;;;4.25;52.43
19761;BME280;10039;42.632;23.408;2024-01-30T11:52:44;96880.78;;;4.25;50.90
19761;BME280;10039;42.632;23.408;2024-01-30T11:55:10;96903.88;;;4.48;51.86
19761;BME280;10039;42.632;23.408;2024-01-30T11:57:36;96891.66;;;4.43;50.42
19761;BME280;10039;42.632;23.408;2024-01-30T12:00:06;96857.66;;;4.22;50.32
19761;BME280;10039;42.632;23.408;2024-01-30T12:02:40;96867.81;;;4.32;50.21
19761;BME280;10039;42.632;23.408;2024-01-30T12:05:06;96896.09;;;4.51;49.96
19761;BME280;10039;42.632;23.408;2024-01-30T12:07:33;96888.47;;;4.50;49.99
19761;BME280;10039;42.632;23.408;2024-01-30T12:09:59;96898.28;;;4.49;50.32
19761;BME280;10039;42.632;23.408;2024-01-30T12:12:28;96853.66;;;4.36;50.61
19761;BME280;10039;42.632;23.408;2024-01-30T12:14:55;96857.94;;;4.40;50.85
19761;BME280;10039;42.632;23.408;2024-01-30T12:17:30;96877.06;;;4.58;51.10
19761;BME280;10039;42.632;23.408;2024-01-30T12:20:14;96878.88;;;4.45;49.55
19761;BME280;10039;42.632;23.408;2024-01-30T12:22:44;96828.34;;;4.15;51.02
19761;BME280;10039;42.632;23.408;2024-01-30T12:25:18;96873.16;;;4.23;49.92
19761;BME280;10039;42.632;23.408;2024-01-30T12:27:46;96823.06;;;3.74;48.82
19761;BME280;10039;42.632;23.408;2024-01-30T12:30:13;96820.84;;;3.55;49.83
19761;BME280;10039;42.632;23.408;2024-01-30T12:32:43;96827.97;;;3.84;51.80
19761;BME280;10039;42.632;23.408;2024-01-30T12:35:15;96818.03;;;3.81;50.80
19761;BME280;10039;42.632;23.408;2024-01-30T12:37:43;96853.91;;;3.82;50.36
19761;BME280;10039;42.632;23.408;2024-01-30T12:40:09;96811.66;;;3.82;52.05
19761;BME280;10039;42.632;23.408;2024-01-30T12:42:36;96843.16;;;4.07;51.85
19761;BME280;10039;42.632;23.408;2024-01-30T12:45:03;96830.22;;;3.94;50.62
19761;BME280;10039;42.632;23.408;2024-01-30T12:47:32;96805.63;;;3.61;50.32
19761;BME280;10039;42.632;23.408;2024-01-30T12:49:58;96812.75;;;3.81;50.54
19761;BME280;10039;42.632;23.408;2024-01-30T12:52:24;96823.31;;;3.81;50.49
19761;BME280;10039;42.632;23.408;2024-01-30T12:54:51;96803.94;;;3.77;49.51
19761;BME280;10039;42.632;23.408;2024-01-30T12:57:18;96828.16;;;3.79;50.17
19761;BME280;10039;42.632;23.408;2024-01-30T12:59:44;96793.38;;;3.56;50.37
19761;BME280;10039;42.632;23.408;2024-01-30T13:02:12;96805.75;;;3.64;50.86